sensor_id;sensor_type;location;lat;lon;timestamp;temperature;humidity
1680;DHT22;838;51.794;12.258;2023-08-08T00:01:42;14.20;26.10
1680;DHT22;838;51.794;12.258;2023-08-08T00:04:11;14.20;24.90
1680;DHT22;838;51.794;12.258;2023-08-08T00:06:37;14.20;24.90
1680;DHT22;838;51.794;12.258;2023-08-08T00:09:04;14.20;26.00
1680;DHT22;838;51.794;12.258;2023-08-08T00:11:30;14.20;25.40
1680;DHT22;838;51.794;12.258;2023-08-08T00:13:56;14.20;26.20
1680;DHT22;838;51.794;12.258;2023-08-08T00:16:25;14.00;28.40
1680;DHT22;838;51.794;12.258;2023-08-08T00:18:51;14.00;29.50
1680;DHT22;838;51.794;12.258;2023-08-08T00:21:19;13.90;30.20
1680;DHT22;838;51.794;12.258;2023-08-08T00:23:45;13.90;31.80
1680;DHT22;838;51.794;12.258;2023-08-08T00:26:11;13.90;33.70
1680;DHT22;838;51.794;12.258;2023-08-08T00:28:37;13.70;37.40
1680;DHT22;838;51.794;12.258;2023-08-08T00:31:05;13.60;38.30
1680;DHT22;838;51.794;12.258;2023-08-08T00:33:31;13.60;39.20
1680;DHT22;838;51.794;12.258;2023-08-08T00:35:57;13.50;41.30
1680;DHT22;838;51.794;12.258;2023-08-08T00:38:23;13.30;42.20
1680;DHT22;838;51.794;12.258;2023-08-08T00:40:49;13.50;43.40
1680;DHT22;838;51.794;12.258;2023-08-08T00:43:14;13.40;44.00
1680;DHT22;838;51.794;12.258;2023-08-08T00:45:44;13.40;44.70
1680;DHT22;838;51.794;12.258;2023-08-08T00:48:14;13.40;44.50
1680;DHT22;838;51.794;12.258;2023-08-08T00:50:50;13.40;43.70
1680;DHT22;838;51.794;12.258;2023-08-08T00:53:17;13.50;42.80
1680;DHT22;838;51.794;12.258;2023-08-08T00:55:44;13.40;43.40
1680;DHT22;838;51.794;12.258;2023-08-08T00:58:11;13.40;43.10
1680;DHT22;838;51.794;12.258;2023-08-08T01:00:37;13.50;42.60
1680;DHT22;838;51.794;12.258;2023-08-08T01:03:03;13.40;42.50
1680;DHT22;838;51.794;12.258;2023-08-08T01:05:37;13.50;42.70
1680;DHT22;838;51.794;12.258;2023-08-08T01:08:07;13.40;43.80
1680;DHT22;838;51.794;12.258;2023-08-08T01:10:37;13.40;43.00
1680;DHT22;838;51.794;12.258;2023-08-08T01:13:07;13.30;44.40
1680;DHT22;838;51.794;12.258;2023-08-08T01:15:34;13.40;45.10
1680;DHT22;838;51.794;12.258;2023-08-08T01:18:08;13.40;45.20
1680;DHT22;838;51.794;12.258;2023-08-08T01:20:38;13.40;44.50
1680;DHT22;838;51.794;12.258;2023-08-08T01:25:53;13.40;47.60
1680;DHT22;838;51.794;12.258;2023-08-08T01:28:23;13.30;46.90
1680;DHT22;838;51.794;12.258;2023-08-08T01:30:50;13.40;48.40
1680;DHT22;838;51.794;12.258;2023-08-08T01:33:16;13.30;48.60
1680;DHT22;838;51.794;12.258;2023-08-08T01:35:45;13.30;49.10
1680;DHT22;838;51.794;12.258;2023-08-08T01:38:17;13.20;50.20
1680;DHT22;838;51.794;12.258;2023-08-08T01:40:45;13.20;51.00
1680;DHT22;838;51.794;12.258;2023-08-08T01:43:12;13.10;51.90
1680;DHT22;838;51.794;12.258;2023-08-08T01:45:40;13.10;53.60
1680;DHT22;838;51.794;12.258;2023-08-08T01:48:11;13.00;54.00
1680;DHT22;838;51.794;12.258;2023-08-08T01:50:40;13.00;54.50
1680;DHT22;838;51.794;12.258;2023-08-08T01:53:05;13.00;54.40
1680;DHT22;838;51.794;12.258;2023-08-08T01:55:31;13.00;54.30
1680;DHT22;838;51.794;12.258;2023-08-08T01:57:57;13.00;54.00
1680;DHT22;838;51.794;12.258;2023-08-08T02:00:23;13.10;53.80
1680;DHT22;838;51.794;12.258;2023-08-08T02:02:49;13.10;53.90
1680;DHT22;838;51.794;12.258;2023-08-08T02:05:15;13.00;54.30
1680;DHT22;838;51.794;12.258;2023-08-08T02:07:40;13.00;54.50
1680;DHT22;838;51.794;12.258;2023-08-08T02:10:09;12.90;55.00
1680;DHT22;838;51.794;12.258;2023-08-08T02:12:35;12.90;55.30
1680;DHT22;838;51.794;12.258;2023-08-08T02:15:01;12.90;55.70
1680;DHT22;838;51.794;12.258;2023-08-08T02:17:28;12.80;56.80
1680;DHT22;838;51.794;12.258;2023-08-08T02:20:03;12.80;56.20
1680;DHT22;838;51.794;12.258;2023-08-08T02:22:29;12.80;56.10
1680;DHT22;838;51.794;12.258;2023-08-08T02:24:55;12.80;56.70
1680;DHT22;838;51.794;12.258;2023-08-08T02:27:21;12.80;56.30
1680;DHT22;838;51.794;12.258;2023-08-08T02:29:55;12.80;57.10
1680;DHT22;838;51.794;12.258;2023-08-08T02:32:23;12.80;57.10
1680;DHT22;838;51.794;12.258;2023-08-08T02:34:49;12.70;57.30
1680;DHT22;838;51.794;12.258;2023-08-08T02:37:18;12.80;56.80
1680;DHT22;838;51.794;12.258;2023-08-08T02:39:44;12.80;56.50
1680;DHT22;838;51.794;12.258;2023-08-08T02:42:10;12.80;57.20
1680;DHT22;838;51.794;12.258;2023-08-08T02:44:36;12.80;56.70
1680;DHT22;838;51.794;12.258;2023-08-08T02:47:02;12.90;56.70
1680;DHT22;838;51.794;12.258;2023-08-08T02:49:30;12.90;56.80
1680;DHT22;838;51.794;12.258;2023-08-08T02:52:02;12.90;57.30
1680;DHT22;838;51.794;12.258;2023-08-08T02:54:28;12.90;56.70
1680;DHT22;838;51.794;12.258;2023-08-08T02:56:54;12.90;56.10
1680;DHT22;838;51.794;12.258;2023-08-08T02:59:20;13.00;56.10
1680;DHT22;838;51.794;12.258;2023-08-08T03:01:46;13.10;55.10
1680;DHT22;838;51.794;12.258;2023-08-08T03:04:13;13.10;56.10
1680;DHT22;838;51.794;12.258;2023-08-08T03:06:41;13.00;56.50
1680;DHT22;838;51.794;12.258;2023-08-08T03:09:07;13.10;57.20
1680;DHT22;838;51.794;12.258;2023-08-08T03:11:33;13.10;56.50
1680;DHT22;838;51.794;12.258;2023-08-08T03:13:59;13.10;56.40
1680;DHT22;838;51.794;12.258;2023-08-08T03:16:25;13.00;57.00
1680;DHT22;838;51.794;12.258;2023-08-08T03:18:50;13.10;57.10
1680;DHT22;838;51.794;12.258;2023-08-08T03:21:18;13.10;56.40
1680;DHT22;838;51.794;12.258;2023-08-08T03:23:44;13.20;56.10
1680;DHT22;838;51.794;12.258;2023-08-08T03:26:12;13.20;55.20
1680;DHT22;838;51.794;12.258;2023-08-08T03:28:41;13.20;56.70
1680;DHT22;838;51.794;12.258;2023-08-08T03:31:06;13.20;56.60
1680;DHT22;838;51.794;12.258;2023-08-08T03:33:33;13.20;56.00
1680;DHT22;838;51.794;12.258;2023-08-08T03:35:58;13.20;56.60
1680;DHT22;838;51.794;12.258;2023-08-08T03:38:24;13.20;56.50
1680;DHT22;838;51.794;12.258;2023-08-08T03:40:50;13.20;56.50
1680;DHT22;838;51.794;12.258;2023-08-08T03:43:16;13.20;56.10
1680;DHT22;838;51.794;12.258;2023-08-08T03:45:45;13.30;56.00
1680;DHT22;838;51.794;12.258;2023-08-08T03:48:20;13.30;54.20
1680;DHT22;838;51.794;12.258;2023-08-08T03:50:47;13.30;54.20
1680;DHT22;838;51.794;12.258;2023-08-08T03:53:13;13.30;55.40
1680;DHT22;838;51.794;12.258;2023-08-08T03:55:39;13.30;54.10
1680;DHT22;838;51.794;12.258;2023-08-08T03:58:04;13.40;54.10
1680;DHT22;838;51.794;12.258;2023-08-08T04:00:31;13.30;54.30
1680;DHT22;838;51.794;12.258;2023-08-08T04:02:57;13.30;54.80
1680;DHT22;838;51.794;12.258;2023-08-08T04:05:23;13.30;55.50
1680;DHT22;838;51.794;12.258;2023-08-08T04:07:49;13.30;55.30
1680;DHT22;838;51.794;12.258;2023-08-08T04:10:15;13.30;54.80
1680;DHT22;838;51.794;12.258;2023-08-08T04:12:41;13.30;55.00
1680;DHT22;838;51.794;12.258;2023-08-08T04:15:07;13.40;54.20
1680;DHT22;838;51.794;12.258;2023-08-08T04:17:33;13.50;52.60
1680;DHT22;838;51.794;12.258;2023-08-08T04:19:58;13.60;52.40
1680;DHT22;838;51.794;12.258;2023-08-08T04:22:24;13.70;52.00
1680;DHT22;838;51.794;12.258;2023-08-08T04:24:50;13.70;51.10
1680;DHT22;838;51.794;12.258;2023-08-08T04:27:19;13.70;51.40
1680;DHT22;838;51.794;12.258;2023-08-08T04:29:44;13.70;51.00
1680;DHT22;838;51.794;12.258;2023-08-08T04:32:10;13.80;51.60
1680;DHT22;838;51.794;12.258;2023-08-08T04:34:36;13.80;50.80
1680;DHT22;838;51.794;12.258;2023-08-08T04:37:02;13.80;49.90
1680;DHT22;838;51.794;12.258;2023-08-08T04:39:27;13.90;50.60
1680;DHT22;838;51.794;12.258;2023-08-08T04:41:53;14.00;49.90
1680;DHT22;838;51.794;12.258;2023-08-08T04:44:19;14.10;49.60
1680;DHT22;838;51.794;12.258;2023-08-08T04:46:45;14.10;48.30
1680;DHT22;838;51.794;12.258;2023-08-08T04:49:13;14.10;48.30
1680;DHT22;838;51.794;12.258;2023-08-08T04:51:45;14.10;48.10
1680;DHT22;838;51.794;12.258;2023-08-08T04:54:14;14.20;47.70
1680;DHT22;838;51.794;12.258;2023-08-08T04:56:43;14.30;46.10
1680;DHT22;838;51.794;12.258;2023-08-08T04:59:09;14.40;45.60
1680;DHT22;838;51.794;12.258;2023-08-08T05:01:35;14.30;44.70
1680;DHT22;838;51.794;12.258;2023-08-08T05:04:00;14.40;45.10
1680;DHT22;838;51.794;12.258;2023-08-08T05:06:26;14.40;44.40
1680;DHT22;838;51.794;12.258;2023-08-08T05:08:52;14.50;43.50
1680;DHT22;838;51.794;12.258;2023-08-08T05:11:18;14.60;43.10
1680;DHT22;838;51.794;12.258;2023-08-08T05:13:44;14.70;40.70
1680;DHT22;838;51.794;12.258;2023-08-08T05:16:10;14.80;39.40
1680;DHT22;838;51.794;12.258;2023-08-08T05:18:36;14.80;39.80
1680;DHT22;838;51.794;12.258;2023-08-08T05:21:02;14.90;38.00
1680;DHT22;838;51.794;12.258;2023-08-08T05:23:30;14.90;38.30
1680;DHT22;838;51.794;12.258;2023-08-08T05:25:55;14.90;38.30
1680;DHT22;838;51.794;12.258;2023-08-08T05:28:21;15.00;38.00
1680;DHT22;838;51.794;12.258;2023-08-08T05:30:47;15.10;36.00
1680;DHT22;838;51.794;12.258;2023-08-08T05:33:13;15.00;35.60
1680;DHT22;838;51.794;12.258;2023-08-08T05:35:39;14.90;37.10
1680;DHT22;838;51.794;12.258;2023-08-08T05:38:07;14.90;38.40
1680;DHT22;838;51.794;12.258;2023-08-08T05:40:36;14.90;37.50
1680;DHT22;838;51.794;12.258;2023-08-08T05:43:03;14.90;37.20
1680;DHT22;838;51.794;12.258;2023-08-08T05:45:29;14.90;36.90
1680;DHT22;838;51.794;12.258;2023-08-08T05:47:55;15.00;36.20
1680;DHT22;838;51.794;12.258;2023-08-08T05:50:22;15.00;36.30
1680;DHT22;838;51.794;12.258;2023-08-08T05:52:47;15.10;35.40
1680;DHT22;838;51.794;12.258;2023-08-08T05:55:13;15.10;34.80
1680;DHT22;838;51.794;12.258;2023-08-08T05:57:42;15.00;34.70
1680;DHT22;838;51.794;12.258;2023-08-08T06:00:08;15.00;36.30
1680;DHT22;838;51.794;12.258;2023-08-08T06:02:37;15.00;36.10
1680;DHT22;838;51.794;12.258;2023-08-08T06:05:03;15.00;34.70
1680;DHT22;838;51.794;12.258;2023-08-08T06:07:29;15.20;34.10
1680;DHT22;838;51.794;12.258;2023-08-08T06:09:54;15.10;34.80
1680;DHT22;838;51.794;12.258;2023-08-08T06:12:20;15.20;33.90
1680;DHT22;838;51.794;12.258;2023-08-08T06:14:46;15.30;32.80
1680;DHT22;838;51.794;12.258;2023-08-08T06:17:12;15.30;31.80
1680;DHT22;838;51.794;12.258;2023-08-08T06:19:38;15.30;32.30
1680;DHT22;838;51.794;12.258;2023-08-08T06:22:04;15.30;32.00
1680;DHT22;838;51.794;12.258;2023-08-08T06:24:29;15.20;32.70
1680;DHT22;838;51.794;12.258;2023-08-08T06:26:56;15.20;33.40
1680;DHT22;838;51.794;12.258;2023-08-08T06:29:21;15.30;33.50
1680;DHT22;838;51.794;12.258;2023-08-08T06:31:47;15.20;33.50
1680;DHT22;838;51.794;12.258;2023-08-08T06:34:13;15.20;34.60
1680;DHT22;838;51.794;12.258;2023-08-08T06:36:39;15.30;33.20
1680;DHT22;838;51.794;12.258;2023-08-08T06:39:04;15.40;32.70
1680;DHT22;838;51.794;12.258;2023-08-08T06:41:31;15.40;33.10
1680;DHT22;838;51.794;12.258;2023-08-08T06:43:58;15.30;33.70
1680;DHT22;838;51.794;12.258;2023-08-08T06:46:24;15.40;33.50
1680;DHT22;838;51.794;12.258;2023-08-08T06:48:50;15.50;32.70
1680;DHT22;838;51.794;12.258;2023-08-08T06:51:21;15.60;31.90
1680;DHT22;838;51.794;12.258;2023-08-08T06:53:47;15.70;30.80
1680;DHT22;838;51.794;12.258;2023-08-08T06:56:13;15.70;31.00
1680;DHT22;838;51.794;12.258;2023-08-08T06:58:38;15.70;30.40
1680;DHT22;838;51.794;12.258;2023-08-08T07:01:04;15.90;29.90
1680;DHT22;838;51.794;12.258;2023-08-08T07:03:30;15.90;29.20
1680;DHT22;838;51.794;12.258;2023-08-08T07:05:55;16.00;28.90
1680;DHT22;838;51.794;12.258;2023-08-08T07:08:21;16.00;28.90
1680;DHT22;838;51.794;12.258;2023-08-08T07:10:47;16.10;28.50
1680;DHT22;838;51.794;12.258;2023-08-08T07:13:13;16.00;28.50
1680;DHT22;838;51.794;12.258;2023-08-08T07:15:41;16.10;28.90
1680;DHT22;838;51.794;12.258;2023-08-08T07:18:06;16.20;28.20
1680;DHT22;838;51.794;12.258;2023-08-08T07:20:32;16.30;27.40
1680;DHT22;838;51.794;12.258;2023-08-08T07:22:58;16.40;26.70
1680;DHT22;838;51.794;12.258;2023-08-08T07:25:25;16.50;26.00
1680;DHT22;838;51.794;12.258;2023-08-08T07:27:51;16.40;25.70
1680;DHT22;838;51.794;12.258;2023-08-08T07:30:17;16.40;25.10
1680;DHT22;838;51.794;12.258;2023-08-08T07:32:43;16.70;24.70
1680;DHT22;838;51.794;12.258;2023-08-08T07:35:08;16.70;24.20
1680;DHT22;838;51.794;12.258;2023-08-08T07:37:34;16.80;23.70
1680;DHT22;838;51.794;12.258;2023-08-08T07:40:01;17.00;22.70
1680;DHT22;838;51.794;12.258;2023-08-08T07:42:27;16.90;23.30
1680;DHT22;838;51.794;12.258;2023-08-08T07:44:53;17.00;22.70
1680;DHT22;838;51.794;12.258;2023-08-08T07:47:19;17.10;24.10
1680;DHT22;838;51.794;12.258;2023-08-08T07:49:45;17.40;22.30
1680;DHT22;838;51.794;12.258;2023-08-08T07:52:11;17.50;19.70
1680;DHT22;838;51.794;12.258;2023-08-08T07:54:37;17.50;18.90
1680;DHT22;838;51.794;12.258;2023-08-08T07:57:02;17.50;17.20
1680;DHT22;838;51.794;12.258;2023-08-08T07:59:29;17.60;16.60
1680;DHT22;838;51.794;12.258;2023-08-08T08:01:56;17.80;14.50
1680;DHT22;838;51.794;12.258;2023-08-08T08:04:21;18.00;14.10
1680;DHT22;838;51.794;12.258;2023-08-08T08:06:50;18.10;12.40
1680;DHT22;838;51.794;12.258;2023-08-08T08:09:18;18.30;12.40
1680;DHT22;838;51.794;12.258;2023-08-08T08:11:44;18.30;10.50
1680;DHT22;838;51.794;12.258;2023-08-08T08:14:21;18.40;10.80
1680;DHT22;838;51.794;12.258;2023-08-08T08:16:47;18.50;10.30
1680;DHT22;838;51.794;12.258;2023-08-08T08:19:14;18.40;10.00
1680;DHT22;838;51.794;12.258;2023-08-08T08:21:40;18.40;9.70
1680;DHT22;838;51.794;12.258;2023-08-08T08:24:06;18.50;10.00
1680;DHT22;838;51.794;12.258;2023-08-08T08:26:31;18.60;8.40
1680;DHT22;838;51.794;12.258;2023-08-08T08:28:58;18.70;8.20
1680;DHT22;838;51.794;12.258;2023-08-08T08:31:23;18.60;7.80
1680;DHT22;838;51.794;12.258;2023-08-08T08:33:49;18.60;7.90
1680;DHT22;838;51.794;12.258;2023-08-08T08:36:15;18.60;8.40
1680;DHT22;838;51.794;12.258;2023-08-08T08:38:41;19.00;6.60
1680;DHT22;838;51.794;12.258;2023-08-08T08:41:09;19.50;4.90
1680;DHT22;838;51.794;12.258;2023-08-08T08:43:38;19.70;1.10
1680;DHT22;838;51.794;12.258;2023-08-08T08:46:04;19.70;1.80
1680;DHT22;838;51.794;12.258;2023-08-08T08:48:31;19.80;1.00
1680;DHT22;838;51.794;12.258;2023-08-08T08:51:00;20.10;1.00
1680;DHT22;838;51.794;12.258;2023-08-08T08:53:32;20.80;1.00
1680;DHT22;838;51.794;12.258;2023-08-08T08:56:12;22.50;1.00
1680;DHT22;838;51.794;12.258;2023-08-08T08:58:38;24.10;1.00
1680;DHT22;838;51.794;12.258;2023-08-08T09:01:39;24.50;1.00
1680;DHT22;838;51.794;12.258;2023-08-08T09:04:05;23.90;1.00
1680;DHT22;838;51.794;12.258;2023-08-08T09:06:35;23.10;1.00
1680;DHT22;838;51.794;12.258;2023-08-08T09:09:01;22.60;1.00
1680;DHT22;838;51.794;12.258;2023-08-08T09:11:28;22.20;1.00
1680;DHT22;838;51.794;12.258;2023-08-08T09:14:01;22.00;1.00
1680;DHT22;838;51.794;12.258;2023-08-08T09:16:39;21.70;1.00
1680;DHT22;838;51.794;12.258;2023-08-08T09:19:04;21.80;1.00
1680;DHT22;838;51.794;12.258;2023-08-08T09:21:30;21.30;1.00
1680;DHT22;838;51.794;12.258;2023-08-08T09:24:02;21.30;1.00
1680;DHT22;838;51.794;12.258;2023-08-08T09:26:28;21.40;1.00
1680;DHT22;838;51.794;12.258;2023-08-08T09:28:54;22.00;1.00
1680;DHT22;838;51.794;12.258;2023-08-08T09:31:36;22.40;1.00
1680;DHT22;838;51.794;12.258;2023-08-08T09:34:11;23.10;1.00
1680;DHT22;838;51.794;12.258;2023-08-08T09:36:37;23.50;1.00
1680;DHT22;838;51.794;12.258;2023-08-08T09:39:03;24.10;1.00
1680;DHT22;838;51.794;12.258;2023-08-08T09:41:40;23.60;1.00
1680;DHT22;838;51.794;12.258;2023-08-08T09:44:08;23.10;1.00
1680;DHT22;838;51.794;12.258;2023-08-08T09:46:50;22.20;1.00
1680;DHT22;838;51.794;12.258;2023-08-08T09:49:19;21.90;1.00
1680;DHT22;838;51.794;12.258;2023-08-08T09:51:50;22.00;1.00
1680;DHT22;838;51.794;12.258;2023-08-08T09:54:17;22.00;1.00
1680;DHT22;838;51.794;12.258;2023-08-08T09:56:51;22.30;1.00
1680;DHT22;838;51.794;12.258;2023-08-08T09:59:17;22.20;1.00
1680;DHT22;838;51.794;12.258;2023-08-08T10:01:44;21.80;1.00
1680;DHT22;838;51.794;12.258;2023-08-08T10:04:24;21.80;1.00
1680;DHT22;838;51.794;12.258;2023-08-08T10:07:02;21.90;1.00
1680;DHT22;838;51.794;12.258;2023-08-08T10:09:39;22.20;1.00
1680;DHT22;838;51.794;12.258;2023-08-08T10:12:17;22.20;1.00
1680;DHT22;838;51.794;12.258;2023-08-08T10:14:44;22.50;1.00
1680;DHT22;838;51.794;12.258;2023-08-08T10:17:14;22.30;1.00
1680;DHT22;838;51.794;12.258;2023-08-08T10:19:40;22.00;1.00
1680;DHT22;838;51.794;12.258;2023-08-08T10:22:08;21.80;1.00
1680;DHT22;838;51.794;12.258;2023-08-08T10:24:35;21.80;1.00
1680;DHT22;838;51.794;12.258;2023-08-08T10:27:02;21.60;1.00
1680;DHT22;838;51.794;12.258;2023-08-08T10:29:32;21.20;1.00
1680;DHT22;838;51.794;12.258;2023-08-08T10:32:05;20.80;1.00
1680;DHT22;838;51.794;12.258;2023-08-08T10:34:44;20.70;1.00
1680;DHT22;838;51.794;12.258;2023-08-08T10:37:13;20.50;1.00
1680;DHT22;838;51.794;12.258;2023-08-08T10:39:58;20.40;1.00
1680;DHT22;838;51.794;12.258;2023-08-08T10:42:26;20.20;1.00
1680;DHT22;838;51.794;12.258;2023-08-08T10:44:55;20.20;1.00
1680;DHT22;838;51.794;12.258;2023-08-08T10:47:31;20.10;1.00
1680;DHT22;838;51.794;12.258;2023-08-08T10:52:37;20.10;1.00
1680;DHT22;838;51.794;12.258;2023-08-08T10:55:04;20.10;1.00
1680;DHT22;838;51.794;12.258;2023-08-08T10:57:30;20.20;1.00
1680;DHT22;838;51.794;12.258;2023-08-08T11:00:16;20.40;1.00
1680;DHT22;838;51.794;12.258;2023-08-08T11:02:43;20.80;1.00
1680;DHT22;838;51.794;12.258;2023-08-08T11:05:09;21.00;1.00
1680;DHT22;838;51.794;12.258;2023-08-08T11:07:35;21.60;1.00
1680;DHT22;838;51.794;12.258;2023-08-08T11:10:03;21.80;1.00
1680;DHT22;838;51.794;12.258;2023-08-08T11:12:29;21.70;1.00
1680;DHT22;838;51.794;12.258;2023-08-08T11:14:55;21.30;1.00
1680;DHT22;838;51.794;12.258;2023-08-08T11:17:21;21.10;1.00
1680;DHT22;838;51.794;12.258;2023-08-08T11:19:46;20.70;1.00
1680;DHT22;838;51.794;12.258;2023-08-08T11:22:12;20.60;1.00
1680;DHT22;838;51.794;12.258;2023-08-08T11:24:38;20.50;1.00
1680;DHT22;838;51.794;12.258;2023-08-08T11:27:04;20.40;1.00
1680;DHT22;838;51.794;12.258;2023-08-08T11:29:29;20.50;1.00
1680;DHT22;838;51.794;12.258;2023-08-08T11:32:06;20.60;1.00
1680;DHT22;838;51.794;12.258;2023-08-08T11:34:32;20.80;1.00
1680;DHT22;838;51.794;12.258;2023-08-08T11:37:00;20.90;1.00
1680;DHT22;838;51.794;12.258;2023-08-08T11:39:26;21.20;1.00
1680;DHT22;838;51.794;12.258;2023-08-08T11:41:52;21.30;1.00
1680;DHT22;838;51.794;12.258;2023-08-08T11:44:18;21.50;1.00
1680;DHT22;838;51.794;12.258;2023-08-08T11:46:45;21.80;1.00
1680;DHT22;838;51.794;12.258;2023-08-08T11:49:16;22.10;1.00
1680;DHT22;838;51.794;12.258;2023-08-08T11:51:46;22.30;1.00
1680;DHT22;838;51.794;12.258;2023-08-08T11:54:12;22.60;1.00
1680;DHT22;838;51.794;12.258;2023-08-08T11:56:39;22.80;1.00
1680;DHT22;838;51.794;12.258;2023-08-08T11:59:05;22.70;1.00
1680;DHT22;838;51.794;12.258;2023-08-08T12:01:33;22.60;1.00
1680;DHT22;838;51.794;12.258;2023-08-08T12:04:04;22.60;1.00
1680;DHT22;838;51.794;12.258;2023-08-08T12:06:32;22.70;1.00
1680;DHT22;838;51.794;12.258;2023-08-08T12:09:01;22.70;1.00
1680;DHT22;838;51.794;12.258;2023-08-08T12:11:28;22.40;1.00
1680;DHT22;838;51.794;12.258;2023-08-08T12:13:59;22.50;1.00
1680;DHT22;838;51.794;12.258;2023-08-08T12:16:28;22.20;1.00
1680;DHT22;838;51.794;12.258;2023-08-08T12:18:55;22.00;1.00
1680;DHT22;838;51.794;12.258;2023-08-08T12:21:21;21.60;1.00
1680;DHT22;838;51.794;12.258;2023-08-08T12:23:47;21.50;1.00
1680;DHT22;838;51.794;12.258;2023-08-08T12:26:12;21.40;1.00
1680;DHT22;838;51.794;12.258;2023-08-08T12:28:38;21.40;1.00
1680;DHT22;838;51.794;12.258;2023-08-08T12:31:04;21.20;1.00
1680;DHT22;838;51.794;12.258;2023-08-08T12:33:30;21.10;1.00
1680;DHT22;838;51.794;12.258;2023-08-08T12:35:55;20.80;1.00
1680;DHT22;838;51.794;12.258;2023-08-08T12:38:21;20.70;1.00
1680;DHT22;838;51.794;12.258;2023-08-08T12:40:48;20.60;1.00
1680;DHT22;838;51.794;12.258;2023-08-08T12:43:13;20.70;1.00
1680;DHT22;838;51.794;12.258;2023-08-08T12:45:46;20.70;1.00
1680;DHT22;838;51.794;12.258;2023-08-08T12:48:13;20.50;1.00
1680;DHT22;838;51.794;12.258;2023-08-08T12:50:39;19.80;4.90
1680;DHT22;838;51.794;12.258;2023-08-08T12:53:07;19.10;14.30
1680;DHT22;838;51.794;12.258;2023-08-08T12:55:33;18.50;19.70
1680;DHT22;838;51.794;12.258;2023-08-08T12:58:02;18.20;24.40
1680;DHT22;838;51.794;12.258;2023-08-08T13:00:29;17.70;41.10
1680;DHT22;838;51.794;12.258;2023-08-08T13:02:54;17.10;47.40
1680;DHT22;838;51.794;12.258;2023-08-08T13:05:20;16.70;56.10
1680;DHT22;838;51.794;12.258;2023-08-08T13:07:46;16.30;63.50
1680;DHT22;838;51.794;12.258;2023-08-08T13:10:13;16.00;67.70
1680;DHT22;838;51.794;12.258;2023-08-08T13:12:39;16.00;71.30
1680;DHT22;838;51.794;12.258;2023-08-08T13:15:05;16.00;71.10
1680;DHT22;838;51.794;12.258;2023-08-08T13:17:31;16.00;68.80
1680;DHT22;838;51.794;12.258;2023-08-08T13:19:57;16.10;66.20
1680;DHT22;838;51.794;12.258;2023-08-08T13:22:22;16.00;65.00
1680;DHT22;838;51.794;12.258;2023-08-08T13:24:50;16.10;66.50
1680;DHT22;838;51.794;12.258;2023-08-08T13:27:15;16.40;64.80
1680;DHT22;838;51.794;12.258;2023-08-08T13:29:41;16.60;56.90
1680;DHT22;838;51.794;12.258;2023-08-08T13:32:07;16.90;58.30
1680;DHT22;838;51.794;12.258;2023-08-08T13:34:33;17.30;53.80
1680;DHT22;838;51.794;12.258;2023-08-08T13:36:59;17.70;52.10
1680;DHT22;838;51.794;12.258;2023-08-08T13:39:24;18.10;49.60
1680;DHT22;838;51.794;12.258;2023-08-08T13:41:50;18.50;40.50
1680;DHT22;838;51.794;12.258;2023-08-08T13:44:16;18.60;36.80
1680;DHT22;838;51.794;12.258;2023-08-08T13:46:42;18.90;38.80
1680;DHT22;838;51.794;12.258;2023-08-08T13:49:08;19.30;34.90
1680;DHT22;838;51.794;12.258;2023-08-08T13:51:33;19.60;29.70
1680;DHT22;838;51.794;12.258;2023-08-08T13:53:59;19.80;28.10
1680;DHT22;838;51.794;12.258;2023-08-08T13:56:25;19.80;18.40
1680;DHT22;838;51.794;12.258;2023-08-08T13:58:50;19.80;18.10
1680;DHT22;838;51.794;12.258;2023-08-08T14:01:16;20.00;17.00
1680;DHT22;838;51.794;12.258;2023-08-08T14:03:42;20.10;13.00
1680;DHT22;838;51.794;12.258;2023-08-08T14:06:07;20.10;8.30
1680;DHT22;838;51.794;12.258;2023-08-08T14:08:33;20.20;8.70
1680;DHT22;838;51.794;12.258;2023-08-08T14:10:59;20.30;5.80
1680;DHT22;838;51.794;12.258;2023-08-08T14:13:25;20.30;2.30
1680;DHT22;838;51.794;12.258;2023-08-08T14:15:51;20.10;6.60
1680;DHT22;838;51.794;12.258;2023-08-08T14:18:17;20.20;3.10
1680;DHT22;838;51.794;12.258;2023-08-08T14:20:43;20.20;3.60
1680;DHT22;838;51.794;12.258;2023-08-08T14:23:09;20.40;1.00
1680;DHT22;838;51.794;12.258;2023-08-08T14:25:35;20.50;1.00
1680;DHT22;838;51.794;12.258;2023-08-08T14:28:01;20.70;1.00
1680;DHT22;838;51.794;12.258;2023-08-08T14:30:28;20.80;1.00
1680;DHT22;838;51.794;12.258;2023-08-08T14:32:54;20.90;1.00
1680;DHT22;838;51.794;12.258;2023-08-08T14:35:20;21.20;1.00
1680;DHT22;838;51.794;12.258;2023-08-08T14:37:46;21.30;1.00
1680;DHT22;838;51.794;12.258;2023-08-08T14:40:12;21.30;1.00
1680;DHT22;838;51.794;12.258;2023-08-08T14:42:37;21.40;1.00
1680;DHT22;838;51.794;12.258;2023-08-08T14:45:03;21.60;1.00
1680;DHT22;838;51.794;12.258;2023-08-08T14:47:29;21.50;1.00
1680;DHT22;838;51.794;12.258;2023-08-08T14:49:55;21.30;1.00
1680;DHT22;838;51.794;12.258;2023-08-08T14:52:20;21.40;1.00
1680;DHT22;838;51.794;12.258;2023-08-08T14:54:47;21.50;1.00
1680;DHT22;838;51.794;12.258;2023-08-08T14:57:13;21.50;1.00
1680;DHT22;838;51.794;12.258;2023-08-08T14:59:39;21.30;1.00
1680;DHT22;838;51.794;12.258;2023-08-08T15:02:05;21.10;1.00
1680;DHT22;838;51.794;12.258;2023-08-08T15:04:31;21.00;1.00
1680;DHT22;838;51.794;12.258;2023-08-08T15:06:57;21.10;1.00
1680;DHT22;838;51.794;12.258;2023-08-08T15:09:24;21.30;1.00
1680;DHT22;838;51.794;12.258;2023-08-08T15:11:49;21.50;1.00
1680;DHT22;838;51.794;12.258;2023-08-08T15:14:15;21.60;1.00
1680;DHT22;838;51.794;12.258;2023-08-08T15:16:41;21.40;1.00
1680;DHT22;838;51.794;12.258;2023-08-08T15:19:07;21.40;1.00
1680;DHT22;838;51.794;12.258;2023-08-08T15:21:32;21.50;1.00
1680;DHT22;838;51.794;12.258;2023-08-08T15:23:58;21.50;1.00
1680;DHT22;838;51.794;12.258;2023-08-08T15:26:24;21.70;1.00
1680;DHT22;838;51.794;12.258;2023-08-08T15:28:50;21.70;1.00
1680;DHT22;838;51.794;12.258;2023-08-08T15:31:16;21.70;1.00
1680;DHT22;838;51.794;12.258;2023-08-08T15:33:42;21.70;1.00
1680;DHT22;838;51.794;12.258;2023-08-08T15:36:08;21.50;1.00
1680;DHT22;838;51.794;12.258;2023-08-08T15:38:34;21.30;1.00
1680;DHT22;838;51.794;12.258;2023-08-08T15:40:59;21.20;1.00
1680;DHT22;838;51.794;12.258;2023-08-08T15:43:26;21.30;1.00
1680;DHT22;838;51.794;12.258;2023-08-08T15:45:52;21.10;1.00
1680;DHT22;838;51.794;12.258;2023-08-08T15:48:18;21.00;1.00
1680;DHT22;838;51.794;12.258;2023-08-08T15:50:44;21.20;1.00
1680;DHT22;838;51.794;12.258;2023-08-08T15:53:09;21.30;1.00
1680;DHT22;838;51.794;12.258;2023-08-08T15:55:36;21.50;1.00
1680;DHT22;838;51.794;12.258;2023-08-08T15:58:02;21.50;1.00
1680;DHT22;838;51.794;12.258;2023-08-08T16:00:28;21.40;1.00
1680;DHT22;838;51.794;12.258;2023-08-08T16:02:55;21.10;1.00
1680;DHT22;838;51.794;12.258;2023-08-08T16:05:21;21.10;1.00
1680;DHT22;838;51.794;12.258;2023-08-08T16:07:46;20.90;1.00
1680;DHT22;838;51.794;12.258;2023-08-08T16:10:12;20.90;1.00
1680;DHT22;838;51.794;12.258;2023-08-08T16:12:39;20.90;1.00